Janika — V2YK9 — position and weather

sailwx.info

Track history (hours):
 
Tides and Currents Weather Stations Pressure Air Temp Water Temp Dewpoint Dewpoint Depression Visibility Wind Speed Wind Dir Waves Ship Positions

Janika

Last reported at 2014-Oct-17 22:17 UTC. Time now 2014-Oct-21 00:47 UTC.
Position N 17°07' W 061°46'.

; draft 2.6 m.

Type: Tug. MMSI: 305732000.

Date/timePositionNaut miles runAvg speedWind from/ knotsBaromVisibWave heightAir tempDewpointWater temp
2014-Oct-17 22:17N 17°07' W 061°46'0 0.0
2014-Oct-17 21:33N 17°07' W 061°46'0 0.0
2014-Oct-17 20:33N 17°07' W 061°46'0 0.0
2014-Oct-17 14:34N 17°07' W 061°46'0 0.0
2014-Oct-17 13:33N 17°07' W 061°46'2 2.0
2014-Oct-17 12:33N 17°09' W 061°46'2 0.1
2014-Oct-16 20:33N 17°07' W 061°46'0 0.0
2014-Oct-16 19:34N 17°07' W 061°46'  
2014-Oct-08 08:32N 17°12' W 061°48'5 4.7
2014-Oct-08 07:33N 17°08' W 061°46'0 0.0
2014-Oct-08 06:34N 17°07' W 061°46'0 0.0
2014-Oct-08 05:34N 17°08' W 061°46'  
Track history (hours):
 
Tides and Currents Weather Stations Pressure Air Temp Water Temp Dewpoint Dewpoint Depression Visibility Wind Speed Wind Dir Waves Ship Positions

Janika

Last reported at 2014-Oct-17 22:17 UTC. Time now 2014-Oct-21 00:47 UTC.
Position N 17°07' W 061°46'.

; draft 2.6 m.

Type: Tug. MMSI: 305732000.

Date/timePositionNaut miles runAvg speedWind from/ knotsBaromVisibWave heightAir tempDewpointWater temp
2014-Oct-17 22:17N 17°07' W 061°46'0 0.0
2014-Oct-17 21:33N 17°07' W 061°46'0 0.0
2014-Oct-17 20:33N 17°07' W 061°46'0 0.0
2014-Oct-17 14:34N 17°07' W 061°46'0 0.0
2014-Oct-17 13:33N 17°07' W 061°46'2 2.0
2014-Oct-17 12:33N 17°09' W 061°46'2 0.1
2014-Oct-16 20:33N 17°07' W 061°46'0 0.0
2014-Oct-16 19:34N 17°07' W 061°46'  
2014-Oct-08 08:32N 17°12' W 061°48'5 4.7
2014-Oct-08 07:33N 17°08' W 061°46'0 0.0
2014-Oct-08 06:34N 17°07' W 061°46'0 0.0
2014-Oct-08 05:34N 17°08' W 061°46'  

Dump ship's entire track history